Time,TemperatureF,DewpointF,PressureIn,WindDirection,WindDirectionDegrees,WindSpeedMPH,WindSpeedGustMPH,Humidity,HourlyPrecipIn,Conditions,Clouds,dailyrainin,SoftwareType,DateUTC
2013-07-01 00:01:00,75.0,58.0,30.58,West,270,0.0,0.0,55,-99.99,,,-99.99,,2013-07-01 07:01:00,
2013-07-01 00:11:00,74.0,57.0,30.58,West,270,0.0,0.0,56,-99.99,,,-99.99,,2013-07-01 07:11:00,
2013-07-01 00:22:00,74.0,57.0,30.58,West,270,0.0,0.0,56,-99.99,,,-99.99,,2013-07-01 07:22:00,
2013-07-01 00:33:00,74.0,57.0,30.58,West,270,0.0,0.0,55,-99.99,,,-99.99,,2013-07-01 07:33:00,
2013-07-01 00:43:00,74.0,57.0,30.58,West,270,0.0,0.0,55,-99.99,,,-99.99,,2013-07-01 07:43:00,
2013-07-01 00:53:00,73.0,56.0,30.59,West,270,0.0,0.0,55,-99.99,,,-99.99,,2013-07-01 07:53:00,
2013-07-01 01:01:00,73.0,56.0,30.58,West,270,0.0,0.0,55,-99.99,,,-99.99,,2013-07-01 08:01:00,
2013-07-01 01:11:00,73.0,55.0,30.58,West,270,0.0,0.0,54,-99.99,,,-99.99,,2013-07-01 08:11:00,
2013-07-01 01:22:00,73.0,55.0,30.59,West,270,0.0,0.0,54,-99.99,,,-99.99,,2013-07-01 08:22:00,
2013-07-01 01:32:00,73.0,55.0,30.59,West,270,0.0,0.0,54,-99.99,,,-99.99,,2013-07-01 08:32:00,
2013-07-01 01:42:00,72.0,55.0,30.59,West,270,0.0,0.0,55,-99.99,,,-99.99,,2013-07-01 08:42:00,
2013-07-01 01:52:00,72.0,55.0,30.59,West,270,0.0,0.0,55,-99.99,,,-99.99,,2013-07-01 08:52:00,
2013-07-01 02:01:00,73.0,55.0,30.58,West,270,0.0,0.0,54,-99.99,,,-99.99,,2013-07-01 09:01:00,
2013-07-01 02:11:00,73.0,55.0,30.59,West,270,0.0,0.0,53,-99.99,,,-99.99,,2013-07-01 09:11:00,
2013-07-01 02:22:00,73.0,55.0,30.59,West,270,0.0,0.0,53,-99.99,,,-99.99,,2013-07-01 09:22:00,
2013-07-01 02:33:00,73.0,55.0,30.59,West,270,0.0,0.0,53,-99.99,,,-99.99,,2013-07-01 09:33:00,
2013-07-01 02:43:00,73.0,55.0,30.58,West,270,0.0,0.0,53,-99.99,,,-99.99,,2013-07-01 09:43:00,
2013-07-01 02:53:00,72.0,54.0,30.58,West,270,0.0,0.0,54,-99.99,,,-99.99,,2013-07-01 09:53:00,
2013-07-01 03:03:00,72.0,55.0,30.58,West,270,0.0,0.0,55,-99.99,,,-99.99,,2013-07-01 10:03:00,
2013-07-01 03:11:00,71.0,54.0,30.58,West,270,0.0,0.0,55,-99.99,,,-99.99,,2013-07-01 10:11:00,
2013-07-01 03:22:00,71.0,54.0,30.59,West,270,0.0,0.0,55,-99.99,,,-99.99,,2013-07-01 10:22:00,
2013-07-01 03:33:00,71.0,54.0,30.59,West,270,0.0,0.0,56,-99.99,,,-99.99,,2013-07-01 10:33:00,
2013-07-01 03:42:00,70.0,54.0,30.59,West,270,0.0,0.0,57,-99.99,,,-99.99,,2013-07-01 10:42:00,
2013-07-01 03:52:00,70.0,55.0,30.58,West,270,0.0,0.0,58,-99.99,,,-99.99,,2013-07-01 10:52:00,
2013-07-01 04:02:00,69.0,54.0,30.59,West,270,0.0,0.0,58,-99.99,,,-99.99,,2013-07-01 11:02:00,
2013-07-01 04:11:00,69.0,54.0,30.58,West,270,0.0,0.0,59,-99.99,,,-99.99,,2013-07-01 11:11:00,
2013-07-01 04:22:00,69.0,55.0,30.59,West,270,0.0,0.0,61,-99.99,,,-99.99,,2013-07-01 11:22:00,
2013-07-01 04:33:00,69.0,55.0,30.59,West,270,0.0,0.0,62,-99.99,,,-99.99,,2013-07-01 11:33:00,
2013-07-01 04:43:00,68.0,54.0,30.60,West,270,0.0,0.0,61,-99.99,,,-99.99,,2013-07-01 11:43:00,
2013-07-01 04:52:00,68.0,54.0,30.60,West,270,0.0,0.0,62,-99.99,,,-99.99,,2013-07-01 11:52:00,
2013-07-01 05:01:00,68.0,54.0,30.60,West,270,0.0,0.0,62,-99.99,,,-99.99,,2013-07-01 12:01:00,
2013-07-01 05:11:00,68.0,55.0,30.60,West,270,0.0,0.0,64,-99.99,,,-99.99,,2013-07-01 12:11:00,
2013-07-01 05:21:00,67.0,54.0,30.60,West,270,0.0,0.0,62,-99.99,,,-99.99,,2013-07-01 12:21:00,
2013-07-01 05:33:00,67.0,54.0,30.60,West,270,0.0,0.0,63,-99.99,,,-99.99,,2013-07-01 12:33:00,
2013-07-01 05:43:00,68.0,59.0,30.60,West,270,0.0,0.0,72,-99.99,,,-99.99,,2013-07-01 12:43:00,
2013-07-01 05:53:00,68.0,59.0,30.60,West,270,0.0,0.0,72,-99.99,,,-99.99,,2013-07-01 12:53:00,
2013-07-01 06:01:00,69.0,56.0,30.61,West,270,0.0,0.0,64,-99.99,,,-99.99,,2013-07-01 13:01:00,
2013-07-01 06:12:00,69.0,56.0,30.60,West,270,0.0,0.0,63,-99.99,,,-99.99,,2013-07-01 13:12:00,
2013-07-01 06:23:00,70.0,60.0,30.60,West,270,0.0,0.0,70,-99.99,,,-99.99,,2013-07-01 13:23:00,
2013-07-01 06:33:00,72.0,61.0,30.61,West,270,0.0,0.0,68,-99.99,,,-99.99,,2013-07-01 13:33:00,
2013-07-01 06:43:00,72.0,61.0,30.61,West,270,0.0,0.0,68,-99.99,,,-99.99,,2013-07-01 13:43:00,
2013-07-01 06:53:00,72.0,59.0,30.62,West,270,0.0,0.0,63,-99.99,,,-99.99,,2013-07-01 13:53:00,
2013-07-01 07:01:00,72.0,56.0,30.62,West,270,0.0,0.0,58,-99.99,,,-99.99,,2013-07-01 14:01:00,
2013-07-01 07:11:00,72.0,56.0,30.62,West,270,0.0,0.0,58,-99.99,,,-99.99,,2013-07-01 14:11:00,
2013-07-01 07:43:00,73.0,56.0,30.62,West,270,0.0,0.0,55,-99.99,,,-99.99,,2013-07-01 14:43:00,
2013-07-01 07:52:00,74.0,58.0,30.62,West,270,0.0,0.0,57,-99.99,,,-99.99,,2013-07-01 14:52:00,
2013-07-01 08:01:00,73.0,56.0,30.62,West,270,0.0,0.0,55,-99.99,,,-99.99,,2013-07-01 15:01:00,
2013-07-01 08:11:00,74.0,58.0,30.62,West,270,0.0,0.0,57,-99.99,,,-99.99,,2013-07-01 15:11:00,
2013-07-01 08:23:00,74.0,56.0,30.62,West,270,0.0,0.0,53,-99.99,,,-99.99,,2013-07-01 15:23:00,
2013-07-01 08:34:00,76.0,58.0,30.62,West,270,0.0,0.0,53,-99.99,,,-99.99,,2013-07-01 15:34:00,
2013-07-01 08:52:00,76.0,57.0,30.63,West,270,0.0,0.0,52,-99.99,,,-99.99,,2013-07-01 15:52:00,
2013-07-01 09:01:00,76.0,57.0,30.62,West,270,0.0,0.0,52,-99.99,,,-99.99,,2013-07-01 16:01:00,
2013-07-01 09:11:00,76.0,57.0,30.62,West,270,0.0,0.0,52,-99.99,,,-99.99,,2013-07-01 16:11:00,
2013-07-01 09:22:00,78.0,59.0,30.62,West,270,0.0,0.0,52,-99.99,,,-99.99,,2013-07-01 16:22:00,
2013-07-01 09:33:00,78.0,58.0,30.62,West,270,0.0,0.0,51,-99.99,,,-99.99,,2013-07-01 16:33:00,
2013-07-01 09:43:00,78.0,58.0,30.62,West,270,0.0,0.0,51,-99.99,,,-99.99,,2013-07-01 16:43:00,
2013-07-01 09:53:00,79.0,58.0,30.62,West,270,0.0,0.0,49,-99.99,,,-99.99,,2013-07-01 16:53:00,
2013-07-01 10:02:00,79.0,57.0,30.61,West,270,0.0,0.0,47,-99.99,,,-99.99,,2013-07-01 17:02:00,
2013-07-01 10:11:00,79.0,58.0,30.60,West,270,0.0,0.0,49,-99.99,,,-99.99,,2013-07-01 17:11:00,
2013-07-01 10:23:00,79.0,58.0,30.60,West,270,0.0,0.0,49,-99.99,,,-99.99,,2013-07-01 17:23:00,
2013-07-01 10:33:00,79.0,60.0,30.60,West,270,0.0,0.0,52,-99.99,,,-99.99,,2013-07-01 17:33:00,
2013-07-01 10:43:00,80.0,62.0,30.60,West,270,0.0,0.0,55,-99.99,,,-99.99,,2013-07-01 17:43:00,
2013-07-01 13:01:00,86.0,60.0,30.62,West,270,0.0,0.0,42,-99.99,,,-99.99,,2013-07-01 20:01:00,
2013-07-01 13:11:00,86.0,60.0,30.62,West,270,0.0,0.0,42,-99.99,,,-99.99,,2013-07-01 20:11:00,
2013-07-01 13:33:00,87.0,60.0,30.62,West,270,0.0,0.0,41,-99.99,,,-99.99,,2013-07-01 20:33:00,
2013-07-01 13:52:00,88.0,63.0,30.62,West,270,0.0,0.0,44,-99.99,,,-99.99,,2013-07-01 20:52:00,
2013-07-01 14:43:00,90.0,60.0,30.63,West,270,0.0,0.0,37,-99.99,,,-99.99,,2013-07-01 21:43:00,
2013-07-01 14:53:00,90.0,60.0,30.63,West,270,0.0,0.0,37,-99.99,,,-99.99,,2013-07-01 21:53:00,
2013-07-01 15:01:00,90.0,60.0,30.63,West,270,0.0,0.0,37,-99.99,,,-99.99,,2013-07-01 22:01:00,
2013-07-01 15:11:00,90.0,60.0,30.63,West,270,0.0,0.0,37,-99.99,,,-99.99,,2013-07-01 22:11:00,
2013-07-01 15:23:00,90.0,60.0,30.63,West,270,0.0,0.0,37,-99.99,,,-99.99,,2013-07-01 22:23:00,
2013-07-01 15:32:00,90.0,60.0,30.63,West,270,0.0,0.0,37,-99.99,,,-99.99,,2013-07-01 22:32:00,
2013-07-01 15:42:00,90.0,61.0,30.63,West,270,0.0,0.0,38,-99.99,,,-99.99,,2013-07-01 22:42:00,
2013-07-01 15:53:00,90.0,61.0,30.63,West,270,0.0,0.0,38,-99.99,,,-99.99,,2013-07-01 22:53:00,
2013-07-01 16:01:00,90.0,60.0,30.63,West,270,0.0,0.0,37,-99.99,,,-99.99,,2013-07-01 23:01:00,
2013-07-01 16:11:00,90.0,61.0,30.63,West,270,0.0,0.0,38,-99.99,,,-99.99,,2013-07-01 23:11:00,
2013-07-01 16:22:00,90.0,61.0,30.63,West,270,0.0,0.0,38,-99.99,,,-99.99,,2013-07-01 23:22:00,
2013-07-01 16:53:00,91.0,62.0,30.63,West,270,0.0,0.0,38,-99.99,,,-99.99,,2013-07-01 23:53:00,
2013-07-01 18:01:00,91.0,61.0,30.64,West,270,0.0,0.0,37,-99.99,,,-99.99,,2013-07-02 01:01:00,
2013-07-01 18:11:00,91.0,61.0,30.64,West,270,0.0,0.0,37,-99.99,,,-99.99,,2013-07-02 01:11:00,
2013-07-01 21:53:00,79.0,58.0,30.65,West,270,0.0,0.0,48,-99.99,,,-99.99,,2013-07-02 04:53:00,
2013-07-01 22:01:00,79.0,58.0,30.65,West,270,0.0,0.0,48,-99.99,,,-99.99,,2013-07-02 05:01:00,
2013-07-01 22:11:00,77.0,56.0,30.65,West,270,0.0,0.0,49,-99.99,,,-99.99,,2013-07-02 05:11:00,
2013-07-01 22:22:00,76.0,56.0,30.65,West,270,0.0,0.0,50,-99.99,,,-99.99,,2013-07-02 05:22:00,
2013-07-01 22:32:00,76.0,56.0,30.65,West,270,0.0,0.0,50,-99.99,,,-99.99,,2013-07-02 05:32:00,
2013-07-01 22:42:00,76.0,57.0,30.66,West,270,0.0,0.0,52,-99.99,,,-99.99,,2013-07-02 05:42:00,
2013-07-01 22:52:00,75.0,57.0,30.66,West,270,0.0,0.0,53,-99.99,,,-99.99,,2013-07-02 05:52:00,
2013-07-01 23:01:00,74.0,56.0,30.66,West,270,0.0,0.0,54,-99.99,,,-99.99,,2013-07-02 06:01:00,
2013-07-01 23:11:00,74.0,56.0,30.66,West,270,0.0,0.0,54,-99.99,,,-99.99,,2013-07-02 06:11:00,
2013-07-01 23:23:00,73.0,56.0,30.66,West,270,0.0,0.0,55,-99.99,,,-99.99,,2013-07-02 06:23:00,
2013-07-01 23:33:00,73.0,56.0,30.67,West,270,0.0,0.0,55,-99.99,,,-99.99,,2013-07-02 06:33:00,
2013-07-01 23:43:00,72.0,55.0,30.67,West,270,0.0,0.0,55,-99.99,,,-99.99,,2013-07-02 06:43:00,
2013-07-01 23:53:00,72.0,55.0,30.67,West,270,0.0,0.0,55,-99.99,,,-99.99,,2013-07-02 06:53:00,